sensor_id;sensor_type;location;lat;lon;timestamp;P1;durP1;ratioP1;P2;durP2;ratioP2
3643;SDS011;1838;50.742;7.158;2022-07-23T00:00:48;23.10;;;16.33;;
3643;SDS011;1838;50.742;7.158;2022-07-23T00:03:13;22.43;;;15.40;;
3643;SDS011;1838;50.742;7.158;2022-07-23T00:05:39;20.50;;;14.33;;
3643;SDS011;1838;50.742;7.158;2022-07-23T00:08:05;27.87;;;16.80;;
3643;SDS011;1838;50.742;7.158;2022-07-23T00:10:31;24.90;;;16.53;;
3643;SDS011;1838;50.742;7.158;2022-07-23T00:12:57;21.13;;;15.23;;
3643;SDS011;1838;50.742;7.158;2022-07-23T00:15:23;22.90;;;15.87;;
3643;SDS011;1838;50.742;7.158;2022-07-23T00:17:49;23.50;;;15.70;;
3643;SDS011;1838;50.742;7.158;2022-07-23T00:20:15;27.67;;;18.67;;
3643;SDS011;1838;50.742;7.158;2022-07-23T00:22:51;24.17;;;17.10;;
3643;SDS011;1838;50.742;7.158;2022-07-23T00:25:18;32.27;;;18.60;;
3643;SDS011;1838;50.742;7.158;2022-07-23T00:27:44;25.70;;;17.73;;
3643;SDS011;1838;50.742;7.158;2022-07-23T00:30:10;25.77;;;18.13;;
3643;SDS011;1838;50.742;7.158;2022-07-23T00:32:50;32.47;;;19.93;;
3643;SDS011;1838;50.742;7.158;2022-07-23T00:35:20;21.40;;;16.67;;
3643;SDS011;1838;50.742;7.158;2022-07-23T00:37:46;23.83;;;16.60;;
3643;SDS011;1838;50.742;7.158;2022-07-23T00:40:11;27.50;;;18.83;;
3643;SDS011;1838;50.742;7.158;2022-07-23T00:42:38;27.20;;;18.03;;
3643;SDS011;1838;50.742;7.158;2022-07-23T00:45:05;28.93;;;19.43;;
3643;SDS011;1838;50.742;7.158;2022-07-23T00:47:31;24.60;;;17.53;;
3643;SDS011;1838;50.742;7.158;2022-07-23T00:49:57;26.73;;;19.20;;
3643;SDS011;1838;50.742;7.158;2022-07-23T00:52:22;30.43;;;18.70;;
3643;SDS011;1838;50.742;7.158;2022-07-23T00:54:48;28.17;;;17.73;;
3643;SDS011;1838;50.742;7.158;2022-07-23T00:57:14;24.80;;;17.33;;
3643;SDS011;1838;50.742;7.158;2022-07-23T00:59:40;26.83;;;19.33;;
3643;SDS011;1838;50.742;7.158;2022-07-23T01:02:06;29.73;;;19.30;;
3643;SDS011;1838;50.742;7.158;2022-07-23T01:04:32;25.43;;;18.50;;
3643;SDS011;1838;50.742;7.158;2022-07-23T01:06:57;28.97;;;17.90;;
3643;SDS011;1838;50.742;7.158;2022-07-23T01:09:23;30.40;;;20.03;;
3643;SDS011;1838;50.742;7.158;2022-07-23T01:11:50;25.37;;;17.53;;
3643;SDS011;1838;50.742;7.158;2022-07-23T01:14:17;27.60;;;18.93;;
3643;SDS011;1838;50.742;7.158;2022-07-23T01:16:44;27.13;;;20.40;;
3643;SDS011;1838;50.742;7.158;2022-07-23T01:19:11;25.60;;;18.57;;
3643;SDS011;1838;50.742;7.158;2022-07-23T01:21:41;34.90;;;20.53;;
3643;SDS011;1838;50.742;7.158;2022-07-23T01:24:08;32.60;;;20.17;;
3643;SDS011;1838;50.742;7.158;2022-07-23T01:26:35;24.90;;;17.80;;
3643;SDS011;1838;50.742;7.158;2022-07-23T01:29:01;30.20;;;20.10;;
3643;SDS011;1838;50.742;7.158;2022-07-23T01:31:27;32.03;;;19.60;;
3643;SDS011;1838;50.742;7.158;2022-07-23T01:33:53;30.10;;;20.10;;
3643;SDS011;1838;50.742;7.158;2022-07-23T01:36:19;33.83;;;19.93;;
3643;SDS011;1838;50.742;7.158;2022-07-23T01:38:44;26.87;;;19.07;;
3643;SDS011;1838;50.742;7.158;2022-07-23T01:41:10;28.10;;;19.30;;
3643;SDS011;1838;50.742;7.158;2022-07-23T01:43:35;32.20;;;21.30;;
3643;SDS011;1838;50.742;7.158;2022-07-23T01:46:01;30.03;;;20.17;;
3643;SDS011;1838;50.742;7.158;2022-07-23T01:48:26;30.27;;;19.60;;
3643;SDS011;1838;50.742;7.158;2022-07-23T01:50:52;27.77;;;20.83;;
3643;SDS011;1838;50.742;7.158;2022-07-23T01:53:17;26.00;;;20.47;;
3643;SDS011;1838;50.742;7.158;2022-07-23T01:55:43;30.90;;;20.13;;
3643;SDS011;1838;50.742;7.158;2022-07-23T01:58:09;31.70;;;20.00;;
3643;SDS011;1838;50.742;7.158;2022-07-23T02:00:35;28.47;;;19.53;;
3643;SDS011;1838;50.742;7.158;2022-07-23T02:03:00;30.37;;;20.47;;
3643;SDS011;1838;50.742;7.158;2022-07-23T02:05:26;29.03;;;20.27;;
3643;SDS011;1838;50.742;7.158;2022-07-23T02:07:56;35.00;;;21.57;;
3643;SDS011;1838;50.742;7.158;2022-07-23T02:10:23;31.33;;;22.37;;
3643;SDS011;1838;50.742;7.158;2022-07-23T02:12:49;37.23;;;21.90;;
3643;SDS011;1838;50.742;7.158;2022-07-23T02:15:15;31.30;;;20.70;;
3643;SDS011;1838;50.742;7.158;2022-07-23T02:17:41;33.80;;;23.10;;
3643;SDS011;1838;50.742;7.158;2022-07-23T02:20:07;30.63;;;22.30;;
3643;SDS011;1838;50.742;7.158;2022-07-23T02:22:33;45.30;;;22.17;;
3643;SDS011;1838;50.742;7.158;2022-07-23T02:24:59;39.50;;;23.73;;
3643;SDS011;1838;50.742;7.158;2022-07-23T02:27:25;36.87;;;20.90;;
3643;SDS011;1838;50.742;7.158;2022-07-23T02:29:50;34.43;;;22.60;;
3643;SDS011;1838;50.742;7.158;2022-07-23T02:32:16;32.60;;;21.60;;
3643;SDS011;1838;50.742;7.158;2022-07-23T02:34:42;32.00;;;21.57;;
3643;SDS011;1838;50.742;7.158;2022-07-23T02:37:07;42.10;;;23.10;;
3643;SDS011;1838;50.742;7.158;2022-07-23T02:39:33;38.20;;;23.30;;
3643;SDS011;1838;50.742;7.158;2022-07-23T02:42:02;29.50;;;20.73;;
3643;SDS011;1838;50.742;7.158;2022-07-23T02:44:27;31.23;;;20.07;;
3643;SDS011;1838;50.742;7.158;2022-07-23T02:46:53;34.57;;;22.30;;
3643;SDS011;1838;50.742;7.158;2022-07-23T02:49:19;31.70;;;19.50;;
3643;SDS011;1838;50.742;7.158;2022-07-23T02:51:44;34.87;;;20.47;;
3643;SDS011;1838;50.742;7.158;2022-07-23T02:54:10;31.50;;;20.27;;
3643;SDS011;1838;50.742;7.158;2022-07-23T02:56:35;31.23;;;21.70;;
3643;SDS011;1838;50.742;7.158;2022-07-23T02:59:01;34.17;;;22.53;;
3643;SDS011;1838;50.742;7.158;2022-07-23T03:01:26;37.30;;;19.30;;
3643;SDS011;1838;50.742;7.158;2022-07-23T03:03:52;31.60;;;20.90;;
3643;SDS011;1838;50.742;7.158;2022-07-23T03:06:17;42.30;;;21.33;;
3643;SDS011;1838;50.742;7.158;2022-07-23T03:08:43;34.27;;;20.00;;
3643;SDS011;1838;50.742;7.158;2022-07-23T03:11:08;31.40;;;19.00;;
3643;SDS011;1838;50.742;7.158;2022-07-23T03:13:36;29.40;;;18.60;;
3643;SDS011;1838;50.742;7.158;2022-07-23T03:16:03;28.67;;;20.10;;
3643;SDS011;1838;50.742;7.158;2022-07-23T03:18:28;32.13;;;19.73;;
3643;SDS011;1838;50.742;7.158;2022-07-23T03:20:54;28.10;;;18.60;;
3643;SDS011;1838;50.742;7.158;2022-07-23T03:23:20;25.70;;;16.93;;
3643;SDS011;1838;50.742;7.158;2022-07-23T03:25:45;24.93;;;17.17;;
3643;SDS011;1838;50.742;7.158;2022-07-23T03:28:13;25.40;;;17.73;;
3643;SDS011;1838;50.742;7.158;2022-07-23T03:30:44;24.60;;;16.40;;
3643;SDS011;1838;50.742;7.158;2022-07-23T03:33:12;25.67;;;15.77;;
3643;SDS011;1838;50.742;7.158;2022-07-23T03:35:42;30.33;;;15.80;;
3643;SDS011;1838;50.742;7.158;2022-07-23T03:38:08;25.50;;;16.30;;
3643;SDS011;1838;50.742;7.158;2022-07-23T03:40:34;20.57;;;14.47;;
3643;SDS011;1838;50.742;7.158;2022-07-23T03:42:59;21.67;;;15.73;;
3643;SDS011;1838;50.742;7.158;2022-07-23T03:45:25;23.03;;;16.30;;
3643;SDS011;1838;50.742;7.158;2022-07-23T03:47:50;25.20;;;16.33;;
3643;SDS011;1838;50.742;7.158;2022-07-23T03:50:16;24.80;;;16.53;;
3643;SDS011;1838;50.742;7.158;2022-07-23T03:52:41;26.10;;;17.33;;
3643;SDS011;1838;50.742;7.158;2022-07-23T03:55:07;23.20;;;15.93;;
3643;SDS011;1838;50.742;7.158;2022-07-23T03:57:33;23.07;;;16.00;;
3643;SDS011;1838;50.742;7.158;2022-07-23T03:59:59;19.57;;;14.63;;
3643;SDS011;1838;50.742;7.158;2022-07-23T04:02:24;26.00;;;17.00;;
3643;SDS011;1838;50.742;7.158;2022-07-23T04:04:50;23.10;;;15.53;;
3643;SDS011;1838;50.742;7.158;2022-07-23T04:07:16;26.77;;;16.00;;
3643;SDS011;1838;50.742;7.158;2022-07-23T04:09:42;30.10;;;16.13;;
3643;SDS011;1838;50.742;7.158;2022-07-23T04:12:09;29.30;;;17.13;;
3643;SDS011;1838;50.742;7.158;2022-07-23T04:14:34;23.40;;;16.47;;
3643;SDS011;1838;50.742;7.158;2022-07-23T04:17:00;26.10;;;17.07;;
3643;SDS011;1838;50.742;7.158;2022-07-23T04:19:26;25.57;;;14.53;;
3643;SDS011;1838;50.742;7.158;2022-07-23T04:21:51;26.20;;;15.97;;
3643;SDS011;1838;50.742;7.158;2022-07-23T04:24:17;24.63;;;15.40;;
3643;SDS011;1838;50.742;7.158;2022-07-23T04:26:43;23.90;;;16.50;;
3643;SDS011;1838;50.742;7.158;2022-07-23T04:29:10;22.23;;;14.07;;
3643;SDS011;1838;50.742;7.158;2022-07-23T04:31:35;24.70;;;15.07;;
3643;SDS011;1838;50.742;7.158;2022-07-23T04:34:01;21.30;;;13.93;;
3643;SDS011;1838;50.742;7.158;2022-07-23T04:36:27;19.43;;;13.13;;
3643;SDS011;1838;50.742;7.158;2022-07-23T04:38:53;25.17;;;16.40;;
3643;SDS011;1838;50.742;7.158;2022-07-23T04:41:18;21.50;;;13.87;;
3643;SDS011;1838;50.742;7.158;2022-07-23T04:43:44;22.63;;;16.17;;
3643;SDS011;1838;50.742;7.158;2022-07-23T04:46:09;21.17;;;15.77;;
3643;SDS011;1838;50.742;7.158;2022-07-23T04:48:35;41.50;;;16.80;;
3643;SDS011;1838;50.742;7.158;2022-07-23T04:51:01;26.80;;;16.90;;
3643;SDS011;1838;50.742;7.158;2022-07-23T04:53:27;25.40;;;18.70;;
3643;SDS011;1838;50.742;7.158;2022-07-23T04:55:52;28.23;;;16.67;;
3643;SDS011;1838;50.742;7.158;2022-07-23T04:58:18;29.67;;;18.70;;
3643;SDS011;1838;50.742;7.158;2022-07-23T05:00:44;26.57;;;17.10;;
3643;SDS011;1838;50.742;7.158;2022-07-23T05:03:09;28.83;;;18.17;;
3643;SDS011;1838;50.742;7.158;2022-07-23T05:05:35;24.83;;;17.60;;
3643;SDS011;1838;50.742;7.158;2022-07-23T05:08:01;30.93;;;18.87;;
3643;SDS011;1838;50.742;7.158;2022-07-23T05:10:26;27.57;;;17.43;;
3643;SDS011;1838;50.742;7.158;2022-07-23T05:12:52;24.47;;;16.30;;
3643;SDS011;1838;50.742;7.158;2022-07-23T05:15:17;29.47;;;18.50;;
3643;SDS011;1838;50.742;7.158;2022-07-23T05:17:43;32.30;;;18.73;;
3643;SDS011;1838;50.742;7.158;2022-07-23T05:20:09;27.17;;;17.37;;
3643;SDS011;1838;50.742;7.158;2022-07-23T05:22:34;27.43;;;18.67;;
3643;SDS011;1838;50.742;7.158;2022-07-23T05:25:00;26.23;;;19.10;;
3643;SDS011;1838;50.742;7.158;2022-07-23T05:27:25;32.90;;;17.70;;
3643;SDS011;1838;50.742;7.158;2022-07-23T05:29:51;28.10;;;19.83;;
3643;SDS011;1838;50.742;7.158;2022-07-23T05:32:17;25.00;;;17.53;;
3643;SDS011;1838;50.742;7.158;2022-07-23T05:34:42;27.07;;;17.23;;
3643;SDS011;1838;50.742;7.158;2022-07-23T05:37:08;29.30;;;17.40;;
3643;SDS011;1838;50.742;7.158;2022-07-23T05:39:33;27.73;;;16.50;;
3643;SDS011;1838;50.742;7.158;2022-07-23T05:41:59;30.57;;;18.20;;
3643;SDS011;1838;50.742;7.158;2022-07-23T05:44:24;25.90;;;17.70;;
3643;SDS011;1838;50.742;7.158;2022-07-23T05:46:52;26.80;;;18.40;;
3643;SDS011;1838;50.742;7.158;2022-07-23T05:49:17;27.67;;;18.77;;
3643;SDS011;1838;50.742;7.158;2022-07-23T05:51:43;32.57;;;19.90;;
3643;SDS011;1838;50.742;7.158;2022-07-23T05:54:08;34.57;;;20.10;;
3643;SDS011;1838;50.742;7.158;2022-07-23T05:56:34;32.80;;;18.60;;
3643;SDS011;1838;50.742;7.158;2022-07-23T05:59:00;31.07;;;20.60;;
3643;SDS011;1838;50.742;7.158;2022-07-23T06:01:25;32.77;;;21.57;;
3643;SDS011;1838;50.742;7.158;2022-07-23T06:03:51;29.60;;;21.57;;
3643;SDS011;1838;50.742;7.158;2022-07-23T06:06:17;27.13;;;17.50;;
3643;SDS011;1838;50.742;7.158;2022-07-23T06:08:43;29.03;;;19.10;;
3643;SDS011;1838;50.742;7.158;2022-07-23T06:11:08;28.27;;;17.90;;
3643;SDS011;1838;50.742;7.158;2022-07-23T06:13:34;27.53;;;17.60;;
3643;SDS011;1838;50.742;7.158;2022-07-23T06:15:59;27.13;;;16.83;;
3643;SDS011;1838;50.742;7.158;2022-07-23T06:18:25;30.63;;;17.70;;
3643;SDS011;1838;50.742;7.158;2022-07-23T06:20:50;25.57;;;17.47;;
3643;SDS011;1838;50.742;7.158;2022-07-23T06:23:16;25.40;;;17.60;;
3643;SDS011;1838;50.742;7.158;2022-07-23T06:25:41;29.73;;;17.23;;
3643;SDS011;1838;50.742;7.158;2022-07-23T06:28:07;29.40;;;18.20;;
3643;SDS011;1838;50.742;7.158;2022-07-23T06:30:32;27.27;;;17.23;;
3643;SDS011;1838;50.742;7.158;2022-07-23T06:32:58;24.60;;;16.33;;
3643;SDS011;1838;50.742;7.158;2022-07-23T06:35:23;32.13;;;18.70;;
3643;SDS011;1838;50.742;7.158;2022-07-23T06:37:49;31.73;;;16.17;;
3643;SDS011;1838;50.742;7.158;2022-07-23T06:40:14;25.07;;;16.20;;
3643;SDS011;1838;50.742;7.158;2022-07-23T06:42:40;28.37;;;17.23;;
3643;SDS011;1838;50.742;7.158;2022-07-23T06:45:06;25.13;;;15.90;;
3643;SDS011;1838;50.742;7.158;2022-07-23T06:47:32;25.00;;;17.90;;
3643;SDS011;1838;50.742;7.158;2022-07-23T06:49:58;23.90;;;15.80;;
3643;SDS011;1838;50.742;7.158;2022-07-23T06:52:24;24.00;;;14.97;;
3643;SDS011;1838;50.742;7.158;2022-07-23T06:54:50;22.73;;;14.00;;
3643;SDS011;1838;50.742;7.158;2022-07-23T06:57:16;20.57;;;14.30;;
3643;SDS011;1838;50.742;7.158;2022-07-23T06:59:42;19.20;;;13.10;;
3643;SDS011;1838;50.742;7.158;2022-07-23T07:02:08;15.77;;;12.63;;
3643;SDS011;1838;50.742;7.158;2022-07-23T07:04:33;15.77;;;12.20;;
3643;SDS011;1838;50.742;7.158;2022-07-23T07:06:59;13.13;;;11.00;;
3643;SDS011;1838;50.742;7.158;2022-07-23T07:09:25;18.93;;;13.13;;
3643;SDS011;1838;50.742;7.158;2022-07-23T07:11:50;16.63;;;11.67;;
3643;SDS011;1838;50.742;7.158;2022-07-23T07:14:16;16.37;;;11.83;;
3643;SDS011;1838;50.742;7.158;2022-07-23T07:16:42;14.23;;;11.70;;
3643;SDS011;1838;50.742;7.158;2022-07-23T07:19:07;15.53;;;10.97;;
3643;SDS011;1838;50.742;7.158;2022-07-23T07:21:33;16.93;;;10.73;;
3643;SDS011;1838;50.742;7.158;2022-07-23T07:23:58;13.10;;;10.03;;
3643;SDS011;1838;50.742;7.158;2022-07-23T07:26:24;10.53;;;9.43;;
3643;SDS011;1838;50.742;7.158;2022-07-23T07:28:50;11.53;;;9.60;;
3643;SDS011;1838;50.742;7.158;2022-07-23T07:31:16;13.13;;;8.40;;
3643;SDS011;1838;50.742;7.158;2022-07-23T07:33:41;9.97;;;8.20;;
3643;SDS011;1838;50.742;7.158;2022-07-23T07:36:07;11.70;;;10.50;;
3643;SDS011;1838;50.742;7.158;2022-07-23T07:38:33;8.90;;;8.07;;
3643;SDS011;1838;50.742;7.158;2022-07-23T07:40:59;13.53;;;9.50;;
3643;SDS011;1838;50.742;7.158;2022-07-23T07:43:24;17.10;;;8.00;;
3643;SDS011;1838;50.742;7.158;2022-07-23T07:45:50;9.97;;;8.67;;
3643;SDS011;1838;50.742;7.158;2022-07-23T07:48:15;8.80;;;7.90;;
3643;SDS011;1838;50.742;7.158;2022-07-23T07:50:41;10.00;;;7.43;;
3643;SDS011;1838;50.742;7.158;2022-07-23T07:53:06;11.20;;;8.90;;
3643;SDS011;1838;50.742;7.158;2022-07-23T07:55:33;8.70;;;7.80;;
3643;SDS011;1838;50.742;7.158;2022-07-23T07:57:59;8.57;;;7.73;;
3643;SDS011;1838;50.742;7.158;2022-07-23T08:00:25;15.37;;;6.60;;
3643;SDS011;1838;50.742;7.158;2022-07-23T08:02:51;7.57;;;6.77;;
3643;SDS011;1838;50.742;7.158;2022-07-23T08:05:18;14.53;;;6.03;;
3643;SDS011;1838;50.742;7.158;2022-07-23T08:07:46;10.10;;;6.63;;
3643;SDS011;1838;50.742;7.158;2022-07-23T08:10:11;10.30;;;8.30;;
3643;SDS011;1838;50.742;7.158;2022-07-23T08:12:38;8.57;;;6.77;;
3643;SDS011;1838;50.742;7.158;2022-07-23T08:15:24;9.23;;;7.63;;
3643;SDS011;1838;50.742;7.158;2022-07-23T08:17:51;9.23;;;7.50;;
3643;SDS011;1838;50.742;7.158;2022-07-23T08:20:17;13.33;;;9.27;;
3643;SDS011;1838;50.742;7.158;2022-07-23T08:22:46;11.30;;;8.40;;
3643;SDS011;1838;50.742;7.158;2022-07-23T08:25:13;11.23;;;7.47;;
3643;SDS011;1838;50.742;7.158;2022-07-23T08:27:40;12.73;;;10.07;;
3643;SDS011;1838;50.742;7.158;2022-07-23T08:30:06;13.30;;;9.90;;
3643;SDS011;1838;50.742;7.158;2022-07-23T08:32:32;13.60;;;8.63;;
3643;SDS011;1838;50.742;7.158;2022-07-23T08:34:58;14.43;;;8.20;;
3643;SDS011;1838;50.742;7.158;2022-07-23T08:37:23;13.03;;;9.23;;
3643;SDS011;1838;50.742;7.158;2022-07-23T08:39:49;11.10;;;8.17;;
3643;SDS011;1838;50.742;7.158;2022-07-23T08:42:14;11.27;;;9.27;;
3643;SDS011;1838;50.742;7.158;2022-07-23T08:44:41;13.03;;;9.20;;
3643;SDS011;1838;50.742;7.158;2022-07-23T08:47:10;14.30;;;10.77;;
3643;SDS011;1838;50.742;7.158;2022-07-23T08:49:37;11.70;;;9.80;;
3643;SDS011;1838;50.742;7.158;2022-07-23T08:52:03;12.77;;;9.00;;
3643;SDS011;1838;50.742;7.158;2022-07-23T08:54:30;10.80;;;8.60;;
3643;SDS011;1838;50.742;7.158;2022-07-23T08:56:56;9.83;;;8.83;;
3643;SDS011;1838;50.742;7.158;2022-07-23T08:59:22;14.00;;;11.77;;
3643;SDS011;1838;50.742;7.158;2022-07-23T09:01:47;12.30;;;9.70;;
3643;SDS011;1838;50.742;7.158;2022-07-23T09:04:13;9.40;;;8.15;;
3643;SDS011;1838;50.742;7.158;2022-07-23T09:06:39;11.40;;;8.80;;
3643;SDS011;1838;50.742;7.158;2022-07-23T09:09:17;15.60;;;11.23;;
3643;SDS011;1838;50.742;7.158;2022-07-23T09:11:47;13.03;;;10.70;;
3643;SDS011;1838;50.742;7.158;2022-07-23T09:14:36;13.73;;;9.50;;
3643;SDS011;1838;50.742;7.158;2022-07-23T09:17:10;14.50;;;10.47;;
3643;SDS011;1838;50.742;7.158;2022-07-23T09:19:37;13.70;;;11.20;;
3643;SDS011;1838;50.742;7.158;2022-07-23T09:22:22;13.97;;;11.03;;
3643;SDS011;1838;50.742;7.158;2022-07-23T09:25:11;14.30;;;10.10;;
3643;SDS011;1838;50.742;7.158;2022-07-23T09:27:49;9.70;;;8.80;;
3643;SDS011;1838;50.742;7.158;2022-07-23T09:30:29;11.40;;;9.40;;
3643;SDS011;1838;50.742;7.158;2022-07-23T09:33:06;12.83;;;11.40;;
3643;SDS011;1838;50.742;7.158;2022-07-23T09:38:28;15.87;;;11.13;;
3643;SDS011;1838;50.742;7.158;2022-07-23T09:41:06;10.97;;;9.43;;
3643;SDS011;1838;50.742;7.158;2022-07-23T09:43:33;12.37;;;9.87;;
3643;SDS011;1838;50.742;7.158;2022-07-23T09:46:18;14.23;;;10.30;;
3643;SDS011;1838;50.742;7.158;2022-07-23T09:48:44;17.80;;;9.70;;
3643;SDS011;1838;50.742;7.158;2022-07-23T09:51:10;10.53;;;9.43;;
3643;SDS011;1838;50.742;7.158;2022-07-23T09:53:36;8.63;;;7.57;;
3643;SDS011;1838;50.742;7.158;2022-07-23T09:56:01;10.77;;;9.63;;
3643;SDS011;1838;50.742;7.158;2022-07-23T09:58:27;10.60;;;8.97;;
3643;SDS011;1838;50.742;7.158;2022-07-23T10:00:55;12.37;;;10.10;;
3643;SDS011;1838;50.742;7.158;2022-07-23T10:03:22;10.47;;;9.13;;
3643;SDS011;1838;50.742;7.158;2022-07-23T10:05:48;11.90;;;8.77;;
3643;SDS011;1838;50.742;7.158;2022-07-23T10:08:17;8.73;;;7.93;;
3643;SDS011;1838;50.742;7.158;2022-07-23T10:10:45;10.07;;;9.17;;
3643;SDS011;1838;50.742;7.158;2022-07-23T10:13:11;8.43;;;7.60;;
3643;SDS011;1838;50.742;7.158;2022-07-23T10:15:55;11.20;;;8.73;;
3643;SDS011;1838;50.742;7.158;2022-07-23T10:18:21;11.07;;;9.97;;
3643;SDS011;1838;50.742;7.158;2022-07-23T10:20:47;10.70;;;9.40;;
3643;SDS011;1838;50.742;7.158;2022-07-23T10:26:11;11.10;;;9.00;;
3643;SDS011;1838;50.742;7.158;2022-07-23T10:29:07;11.10;;;10.10;;
3643;SDS011;1838;50.742;7.158;2022-07-23T10:31:58;12.53;;;10.90;;
3643;SDS011;1838;50.742;7.158;2022-07-23T10:34:31;11.03;;;9.90;;
3643;SDS011;1838;50.742;7.158;2022-07-23T10:37:22;9.10;;;8.20;;
3643;SDS011;1838;50.742;7.158;2022-07-23T10:42:35;12.77;;;8.67;;
3643;SDS011;1838;50.742;7.158;2022-07-23T10:45:03;12.20;;;9.30;;
3643;SDS011;1838;50.742;7.158;2022-07-23T10:47:47;10.33;;;9.43;;
3643;SDS011;1838;50.742;7.158;2022-07-23T10:50:17;16.83;;;10.20;;
3643;SDS011;1838;50.742;7.158;2022-07-23T10:57:58;9.30;;;8.37;;
3643;SDS011;1838;50.742;7.158;2022-07-23T11:00:25;10.70;;;9.33;;
3643;SDS011;1838;50.742;7.158;2022-07-23T11:02:54;9.53;;;8.63;;
3643;SDS011;1838;50.742;7.158;2022-07-23T11:05:24;10.17;;;8.10;;
3643;SDS011;1838;50.742;7.158;2022-07-23T11:10:32;11.53;;;9.30;;
3643;SDS011;1838;50.742;7.158;2022-07-23T11:13:43;9.07;;;8.27;;
3643;SDS011;1838;50.742;7.158;2022-07-23T11:31:54;7.50;;;6.70;;
3643;SDS011;1838;50.742;7.158;2022-07-23T11:34:40;8.03;;;7.33;;
3643;SDS011;1838;50.742;7.158;2022-07-23T11:37:26;7.50;;;6.80;;
3643;SDS011;1838;50.742;7.158;2022-07-23T11:39:55;7.67;;;6.87;;
3643;SDS011;1838;50.742;7.158;2022-07-23T11:42:21;6.47;;;6.03;;
3643;SDS011;1838;50.742;7.158;2022-07-23T11:44:48;6.20;;;5.63;;
3643;SDS011;1838;50.742;7.158;2022-07-23T11:47:13;6.50;;;5.90;;
3643;SDS011;1838;50.742;7.158;2022-07-23T11:49:39;7.37;;;5.90;;
3643;SDS011;1838;50.742;7.158;2022-07-23T11:52:17;8.77;;;6.83;;
3643;SDS011;1838;50.742;7.158;2022-07-23T11:54:49;11.20;;;7.80;;
3643;SDS011;1838;50.742;7.158;2022-07-23T11:57:16;8.03;;;7.33;;
3643;SDS011;1838;50.742;7.158;2022-07-23T11:59:43;7.00;;;6.50;;
3643;SDS011;1838;50.742;7.158;2022-07-23T12:02:11;7.13;;;6.50;;
3643;SDS011;1838;50.742;7.158;2022-07-23T12:04:41;6.90;;;6.30;;
3643;SDS011;1838;50.742;7.158;2022-07-23T12:07:26;7.03;;;6.53;;
3643;SDS011;1838;50.742;7.158;2022-07-23T12:09:54;7.23;;;6.63;;
3643;SDS011;1838;50.742;7.158;2022-07-23T12:12:21;9.23;;;8.43;;
3643;SDS011;1838;50.742;7.158;2022-07-23T12:14:54;11.23;;;9.67;;
3643;SDS011;1838;50.742;7.158;2022-07-23T12:17:24;10.03;;;8.57;;
3643;SDS011;1838;50.742;7.158;2022-07-23T12:19:54;7.40;;;6.80;;
3643;SDS011;1838;50.742;7.158;2022-07-23T12:22:19;10.87;;;8.57;;
3643;SDS011;1838;50.742;7.158;2022-07-23T12:24:57;10.17;;;7.37;;
3643;SDS011;1838;50.742;7.158;2022-07-23T12:27:27;11.37;;;9.50;;
3643;SDS011;1838;50.742;7.158;2022-07-23T12:29:53;19.83;;;10.60;;
3643;SDS011;1838;50.742;7.158;2022-07-23T12:32:23;12.30;;;11.20;;
3643;SDS011;1838;50.742;7.158;2022-07-23T12:35:06;12.00;;;8.90;;
3643;SDS011;1838;50.742;7.158;2022-07-23T12:37:34;11.80;;;9.97;;
3643;SDS011;1838;50.742;7.158;2022-07-23T12:42:45;13.43;;;12.10;;
3643;SDS011;1838;50.742;7.158;2022-07-23T12:45:15;12.83;;;11.50;;
3643;SDS011;1838;50.742;7.158;2022-07-23T12:50:40;11.30;;;10.20;;
3643;SDS011;1838;50.742;7.158;2022-07-23T12:53:16;13.80;;;9.60;;
3643;SDS011;1838;50.742;7.158;2022-07-23T12:55:47;12.10;;;9.77;;
3643;SDS011;1838;50.742;7.158;2022-07-23T12:58:15;10.63;;;9.77;;
3643;SDS011;1838;50.742;7.158;2022-07-23T13:00:51;10.23;;;9.07;;
3643;SDS011;1838;50.742;7.158;2022-07-23T13:03:25;10.70;;;9.07;;
3643;SDS011;1838;50.742;7.158;2022-07-23T13:05:56;10.83;;;8.17;;
3643;SDS011;1838;50.742;7.158;2022-07-23T13:08:23;9.87;;;8.90;;
3643;SDS011;1838;50.742;7.158;2022-07-23T13:10:49;10.83;;;9.70;;
3643;SDS011;1838;50.742;7.158;2022-07-23T13:13:17;12.80;;;9.60;;
3643;SDS011;1838;50.742;7.158;2022-07-23T13:15:45;8.87;;;8.00;;
3643;SDS011;1838;50.742;7.158;2022-07-23T13:18:11;10.00;;;9.10;;
3643;SDS011;1838;50.742;7.158;2022-07-23T13:20:36;10.53;;;9.30;;
3643;SDS011;1838;50.742;7.158;2022-07-23T13:23:03;9.10;;;8.13;;
3643;SDS011;1838;50.742;7.158;2022-07-23T13:25:30;8.43;;;7.60;;
3643;SDS011;1838;50.742;7.158;2022-07-23T13:27:56;8.00;;;6.80;;
3643;SDS011;1838;50.742;7.158;2022-07-23T13:30:21;8.63;;;7.73;;
3643;SDS011;1838;50.742;7.158;2022-07-23T13:32:47;6.90;;;6.30;;
3643;SDS011;1838;50.742;7.158;2022-07-23T13:35:13;7.80;;;7.10;;
3643;SDS011;1838;50.742;7.158;2022-07-23T13:37:39;8.40;;;7.00;;
3643;SDS011;1838;50.742;7.158;2022-07-23T13:40:05;7.37;;;6.40;;
3643;SDS011;1838;50.742;7.158;2022-07-23T13:42:31;6.13;;;5.70;;
3643;SDS011;1838;50.742;7.158;2022-07-23T13:44:56;14.07;;;6.20;;
3643;SDS011;1838;50.742;7.158;2022-07-23T13:47:22;7.00;;;6.40;;
3643;SDS011;1838;50.742;7.158;2022-07-23T13:49:47;7.93;;;7.00;;
3643;SDS011;1838;50.742;7.158;2022-07-23T13:52:13;6.40;;;5.90;;
3643;SDS011;1838;50.742;7.158;2022-07-23T13:54:38;7.50;;;6.90;;
3643;SDS011;1838;50.742;7.158;2022-07-23T13:57:04;9.07;;;6.70;;
3643;SDS011;1838;50.742;7.158;2022-07-23T13:59:29;6.80;;;6.20;;
3643;SDS011;1838;50.742;7.158;2022-07-23T14:01:55;7.57;;;6.10;;
3643;SDS011;1838;50.742;7.158;2022-07-23T14:04:21;6.50;;;5.90;;
3643;SDS011;1838;50.742;7.158;2022-07-23T14:06:47;8.40;;;6.03;;
3643;SDS011;1838;50.742;7.158;2022-07-23T14:09:12;8.73;;;5.40;;
3643;SDS011;1838;50.742;7.158;2022-07-23T14:11:38;6.50;;;5.90;;
3643;SDS011;1838;50.742;7.158;2022-07-23T14:14:04;6.33;;;5.83;;
3643;SDS011;1838;50.742;7.158;2022-07-23T14:16:30;6.83;;;6.23;;
3643;SDS011;1838;50.742;7.158;2022-07-23T14:18:55;6.60;;;6.10;;
3643;SDS011;1838;50.742;7.158;2022-07-23T14:21:21;8.90;;;6.97;;
3643;SDS011;1838;50.742;7.158;2022-07-23T14:23:47;8.07;;;7.27;;
3643;SDS011;1838;50.742;7.158;2022-07-23T14:26:16;7.20;;;6.50;;
3643;SDS011;1838;50.742;7.158;2022-07-23T14:28:41;6.20;;;5.70;;
3643;SDS011;1838;50.742;7.158;2022-07-23T14:31:07;6.93;;;6.40;;
3643;SDS011;1838;50.742;7.158;2022-07-23T14:33:33;6.43;;;5.93;;
3643;SDS011;1838;50.742;7.158;2022-07-23T14:35:58;7.83;;;7.13;;
3643;SDS011;1838;50.742;7.158;2022-07-23T14:38:23;6.50;;;5.90;;
3643;SDS011;1838;50.742;7.158;2022-07-23T14:40:49;8.23;;;5.93;;
3643;SDS011;1838;50.742;7.158;2022-07-23T14:43:15;6.93;;;6.17;;
3643;SDS011;1838;50.742;7.158;2022-07-23T14:45:40;6.33;;;5.73;;
3643;SDS011;1838;50.742;7.158;2022-07-23T14:48:06;7.27;;;6.67;;
3643;SDS011;1838;50.742;7.158;2022-07-23T14:50:31;7.50;;;6.77;;
3643;SDS011;1838;50.742;7.158;2022-07-23T14:52:57;6.20;;;5.70;;
3643;SDS011;1838;50.742;7.158;2022-07-23T14:55:22;6.50;;;5.90;;
3643;SDS011;1838;50.742;7.158;2022-07-23T14:57:48;7.40;;;6.73;;
3643;SDS011;1838;50.742;7.158;2022-07-23T15:00:13;10.87;;;6.83;;
3643;SDS011;1838;50.742;7.158;2022-07-23T15:02:39;7.30;;;5.63;;
3643;SDS011;1838;50.742;7.158;2022-07-23T15:05:05;6.20;;;5.70;;
3643;SDS011;1838;50.742;7.158;2022-07-23T15:07:31;6.90;;;6.20;;
3643;SDS011;1838;50.742;7.158;2022-07-23T15:09:57;7.23;;;5.23;;
3643;SDS011;1838;50.742;7.158;2022-07-23T15:12:22;12.23;;;6.37;;
3643;SDS011;1838;50.742;7.158;2022-07-23T15:14:48;8.23;;;6.07;;
3643;SDS011;1838;50.742;7.158;2022-07-23T15:17:14;5.80;;;5.20;;
3643;SDS011;1838;50.742;7.158;2022-07-23T15:19:40;6.73;;;6.03;;
3643;SDS011;1838;50.742;7.158;2022-07-23T15:22:06;6.07;;;5.57;;
3643;SDS011;1838;50.742;7.158;2022-07-23T15:24:32;6.07;;;5.57;;
3643;SDS011;1838;50.742;7.158;2022-07-23T15:26:57;6.50;;;4.93;;
3643;SDS011;1838;50.742;7.158;2022-07-23T15:29:23;5.03;;;4.63;;
3643;SDS011;1838;50.742;7.158;2022-07-23T15:31:49;5.40;;;4.90;;
3643;SDS011;1838;50.742;7.158;2022-07-23T15:34:14;6.60;;;5.60;;
3643;SDS011;1838;50.742;7.158;2022-07-23T15:36:40;5.87;;;5.40;;